Time;durP1;ratioP1;P1;durP2;ratioP2;P2;SDS_P1;SDS_P2;PMS_P1;PMS_P2;Temp;Humidity;BMP_temperature;BMP_pressure;BME280_temperature;BME280_humidity;BME280_pressure;Samples;Min_cycle;Max_cycle;Signal;HPM_P1;HPM_P2
2021/10/08 00:01:40;;;;;;;7.25;2.25;;;12.00;81.00;;;;;;5067105;28;20305;-78
2021/10/08 00:04:05;;;;;;;;;;;12.00;81.40;;;;;;5067453;28;20111;-77
2021/10/08 00:06:31;;;;;;;10.88;2.63;;;11.90;81.20;;;;;;5067158;28;19909;-78
2021/10/08 00:08:56;;;;;;;;;;;11.90;80.80;;;;;;5067646;28;20436;-78
2021/10/08 00:11:23;;;;;;;12.02;2.38;;;12.00;81.10;;;;;;5066662;28;20501;-78
2021/10/08 00:13:48;;;;;;;12.98;2.55;;;12.00;81.00;;;;;;5066757;28;20028;-78
2021/10/08 00:16:14;;;;;;;;;;;11.90;81.20;;;;;;5066631;28;20039;-77
2021/10/08 00:18:41;;;;;;;6.22;2.47;;;11.90;81.00;;;;;;5065352;28;19994;-78
2021/10/08 00:21:08;;;;;;;10.90;3.47;;;11.80;81.20;;;;;;5067052;28;20443;-77
2021/10/08 00:23:34;;;;;;;8.93;2.78;;;11.80;81.30;;;;;;5066501;28;20028;-77
2021/10/08 00:25:59;;;;;;;12.70;3.35;;;11.80;81.50;;;;;;5065166;28;20405;-77
2021/10/08 00:28:25;;;;;;;;;;;11.80;81.30;;;;;;5065365;28;20035;-78
2021/10/08 00:30:51;;;;;;;13.00;2.65;;;11.80;81.40;;;;;;5066554;28;19909;-79
2021/10/08 00:33:16;;;;;;;;;;;11.70;81.90;;;;;;5066973;28;20550;-78
2021/10/08 00:35:42;;;;;;;6.75;2.20;;;11.70;81.50;;;;;;5066309;28;19908;-76
2021/10/08 00:38:08;;;;;;;;;;;11.70;81.60;;;;;;5065719;28;20497;-79
2021/10/08 00:40:36;;;;;;;12.30;3.53;;;11.70;81.90;;;;;;5065414;28;20439;-78
2021/10/08 00:43:03;;;;;;;9.75;2.90;;;11.60;82.00;;;;;;5064742;28;20043;-78
2021/10/08 00:45:30;;;;;;;22.05;3.38;;;11.60;82.10;;;;;;5064901;28;20043;-77
2021/10/08 00:48:00;;;;;;;10.35;3.03;;;11.60;81.80;;;;;;5065383;28;20075;-78
2021/10/08 00:50:26;;;;;;;11.45;2.78;;;11.60;81.90;;;;;;5066110;28;20135;-82
2021/10/08 00:52:52;;;;;;;;;;;11.60;82.20;;;;;;5066656;28;20545;-79
2021/10/08 00:55:18;;;;;;;9.50;2.90;;;11.50;82.20;;;;;;5065347;28;19916;-81
2021/10/08 00:57:45;;;;;;;;;;;11.60;82.30;;;;;;5065918;28;20029;-81
2021/10/08 01:00:12;;;;;;;;;;;11.60;82.20;;;;;;5065804;28;19909;-81
2021/10/08 01:02:37;;;;;;;18.48;2.83;;;11.50;82.60;;;;;;5065846;28;19999;-80
2021/10/08 01:05:03;;;;;;;;;;;11.50;83.10;;;;;;5064596;28;20139;-80
2021/10/08 01:07:28;;;;;;;22.30;4.38;;;11.40;83.40;;;;;;5065912;28;19959;-80
2021/10/08 01:09:54;;;;;;;;;;;11.40;83.40;;;;;;5065857;28;20060;-77
2021/10/08 01:12:20;;;;;;;9.32;2.60;;;11.40;84.00;;;;;;5063833;28;19908;-78
2021/10/08 01:14:45;;;;;;;;;;;11.40;84.30;;;;;;5065342;28;20044;-77
2021/10/08 01:17:16;;;;;;;10.32;2.95;;;11.30;84.80;;;;;;5064158;28;21244;-78
2021/10/08 01:19:42;;;;;;;11.05;3.22;;;11.20;85.20;;;;;;5064905;28;20029;-76
2021/10/08 01:22:09;;;;;;;10.38;3.15;;;11.20;85.50;;;;;;5065675;28;20095;-79
2021/10/08 01:24:35;;;;;;;7.70;3.28;;;11.20;85.60;;;;;;5064759;28;20041;-79
2021/10/08 01:27:07;;;;;;;;;;;11.20;85.40;;;;;;5066507;28;20016;-78
2021/10/08 01:29:33;;;;;;;12.77;3.22;;;11.20;85.40;;;;;;5067986;28;19915;-78
2021/10/08 01:32:00;;;;;;;9.05;2.90;;;11.10;85.50;;;;;;5068228;28;20099;-79
2021/10/08 01:34:26;;;;;;;9.57;2.97;;;11.10;85.50;;;;;;5069991;28;20094;-79
2021/10/08 01:36:51;;;;;;;;;;;11.10;85.90;;;;;;5070414;28;20032;-83
2021/10/08 01:39:17;;;;;;;17.48;4.13;;;11.00;85.90;;;;;;5069232;28;19904;-79
2021/10/08 01:41:43;;;;;;;;;;;11.00;85.90;;;;;;5068847;28;20093;-80
2021/10/08 01:44:08;;;;;;;10.10;2.60;;;11.00;86.10;;;;;;5067122;28;20012;-79
2021/10/08 01:46:34;;;;;;;;;;;11.00;85.80;;;;;;5067779;28;20071;-78
2021/10/08 01:48:59;;;;;;;18.10;3.95;;;11.00;85.80;;;;;;5067749;28;19912;-76
2021/10/08 01:51:25;;;;;;;;;;;10.90;85.70;;;;;;5066663;28;20112;-76
2021/10/08 01:53:51;;;;;;;9.35;3.05;;;10.90;85.80;;;;;;5066817;28;19916;-76
2021/10/08 01:56:16;;;;;;;;;;;10.90;85.00;;;;;;5067689;28;20093;-76
2021/10/08 01:58:42;;;;;;;12.27;4.20;;;11.00;84.50;;;;;;5061483;28;20012;-76
2021/10/08 02:01:08;;;;;;;;;;;11.00;84.70;;;;;;5067979;28;20043;-76
2021/10/08 02:03:34;;;;;;;10.77;3.47;;;11.00;84.30;;;;;;5069485;28;19916;-77
2021/10/08 02:05:59;;;;;;;;;;;10.90;84.60;;;;;;5068140;28;20028;-78
2021/10/08 02:08:25;;;;;;;15.07;3.55;;;10.90;84.40;;;;;;5067716;28;19916;-76
2021/10/08 02:10:51;;;;;;;;;;;10.90;84.50;;;;;;5068287;28;20413;-76
2021/10/08 02:13:18;;;;;;;12.60;3.97;;;10.90;84.50;;;;;;5066645;28;19919;-76
2021/10/08 02:15:44;;;;;;;11.57;4.57;;;10.90;84.90;;;;;;5065454;28;20036;-76
2021/10/08 02:18:10;;;;;;;12.40;3.65;;;10.80;85.00;;;;;;5066174;28;20039;-76
2021/10/08 02:20:36;;;;;;;;;;;10.90;84.70;;;;;;5067032;28;20371;-77
2021/10/08 02:23:01;;;;;;;15.35;5.93;;;10.90;84.90;;;;;;5065040;28;19913;-76
2021/10/08 02:25:27;;;;;;;;;;;10.80;84.80;;;;;;5065738;28;20679;-77
2021/10/08 02:27:52;;;;;;;13.63;3.80;;;10.80;84.90;;;;;;5061621;28;19992;-76
2021/10/08 02:30:18;;;;;;;;;;;10.80;84.80;;;;;;5066847;28;20497;-77
2021/10/08 02:32:43;;;;;;;17.42;3.92;;;10.80;85.00;;;;;;5064593;28;19947;-76
2021/10/08 02:35:09;;;;;;;;;;;10.70;84.70;;;;;;5066015;28;20048;-77
2021/10/08 02:37:35;;;;;;;16.30;4.93;;;10.70;85.00;;;;;;5063553;28;20278;-77
2021/10/08 02:40:01;;;;;;;14.32;4.55;;;10.70;85.10;;;;;;5068442;28;20131;-78
2021/10/08 02:42:26;;;;;;;15.63;4.68;;;10.70;85.70;;;;;;5068797;28;20074;-77
2021/10/08 02:44:52;;;;;;;;;;;10.70;85.20;;;;;;5067600;28;20089;-78
2021/10/08 02:47:17;;;;;;;26.23;6.45;;;10.60;85.50;;;;;;5068958;28;19905;-78
2021/10/08 02:49:43;;;;;;;;;;;10.60;85.40;;;;;;5067429;28;20028;-78
2021/10/08 02:52:08;;;;;;;11.30;4.47;;;10.50;85.40;;;;;;5068415;28;19957;-78
2021/10/08 02:54:34;;;;;;;;;;;10.60;85.50;;;;;;5068383;28;20040;-79
2021/10/08 02:57:00;;;;;;;13.77;4.72;;;10.50;85.80;;;;;;5066942;28;19911;-78
2021/10/08 02:59:26;;;;;;;15.13;4.43;;;10.40;86.30;;;;;;5067252;28;20028;-78
2021/10/08 03:01:52;;;;;;;11.00;4.47;;;10.40;86.20;;;;;;5068452;28;20040;-79
2021/10/08 03:04:18;;;;;;;;;;;10.40;86.20;;;;;;5068975;28;20033;-78
2021/10/08 03:06:43;;;;;;;15.85;5.00;;;10.40;86.10;;;;;;5068539;28;19908;-78
2021/10/08 03:09:09;;;;;;;;;;;10.40;86.50;;;;;;5067224;28;20704;-78
2021/10/08 03:11:36;;;;;;;16.58;4.50;;;10.30;86.40;;;;;;5068335;28;19989;-77
2021/10/08 03:14:02;;;;;;;20.48;4.97;;;10.20;87.00;;;;;;5067517;28;20032;-78
2021/10/08 03:16:27;;;;;;;;;;;10.20;87.00;;;;;;5067404;28;20033;-77
2021/10/08 03:18:53;;;;;;;11.93;4.43;;;10.30;86.50;;;;;;5066655;28;19914;-78
2021/10/08 03:21:18;;;;;;;;;;;10.20;86.70;;;;;;5068499;28;20407;-79
2021/10/08 03:23:44;;;;;;;17.55;4.90;;;10.30;86.60;;;;;;5067557;28;19909;-77
2021/10/08 03:26:10;;;;;;;;;;;10.30;86.40;;;;;;5067071;28;20059;-77
2021/10/08 03:28:35;;;;;;;25.20;4.65;;;10.30;86.40;;;;;;5067942;28;19912;-77
2021/10/08 03:31:01;;;;;;;;;;;10.20;86.50;;;;;;5068451;28;20032;-78
2021/10/08 03:33:26;;;;;;;13.90;4.40;;;10.10;86.90;;;;;;5067515;28;19908;-78
2021/10/08 03:35:52;;;;;;;20.60;4.90;;;10.10;86.80;;;;;;5066448;28;20032;-78
2021/10/08 03:38:19;;;;;;;;;;;10.10;86.70;;;;;;5068291;28;20443;-77
2021/10/08 03:43:31;;;;;;;17.52;5.13;;;10.10;87.20;;;;;;5067397;28;20032;-78
2021/10/08 03:46:00;;;;;;;;;;;10.00;87.00;;;;;;5066473;28;20028;-77
2021/10/08 03:51:12;;;;;;;15.43;5.15;;;10.00;86.80;;;;;;5067778;28;20039;-78
2021/10/08 03:53:37;;;;;;;;;;;10.00;87.20;;;;;;5065826;28;20048;-78
2021/10/08 03:56:03;;;;;;;17.50;4.78;;;10.00;87.00;;;;;;5067340;28;19914;-77
2021/10/08 03:58:29;;;;;;;24.88;5.07;;;10.00;86.90;;;;;;5067207;28;20412;-79
2021/10/08 04:00:54;;;;;;;;;;;9.90;87.00;;;;;;5066591;28;20032;-77
2021/10/08 04:03:20;;;;;;;25.17;5.22;;;9.90;86.70;;;;;;5067048;28;19983;-78
2021/10/08 04:05:45;;;;;;;14.43;4.43;;;9.90;86.80;;;;;;5067515;28;20169;-77
2021/10/08 04:08:11;;;;;;;15.32;5.32;;;9.90;86.70;;;;;;5066445;28;20036;-78
2021/10/08 04:10:37;;;;;;;;;;;9.90;86.90;;;;;;5067773;28;20053;-77
2021/10/08 04:13:02;;;;;;;21.85;6.28;;;9.90;86.50;;;;;;5066849;28;19909;-77
2021/10/08 04:15:28;;;;;;;;;;;9.90;86.60;;;;;;5067178;28;20536;-78
2021/10/08 04:17:53;;;;;;;17.95;4.95;;;9.90;86.60;;;;;;5066919;28;20368;-77
2021/10/08 04:20:19;;;;;;;;;;;9.90;86.60;;;;;;5065848;28;20036;-78
2021/10/08 04:22:44;;;;;;;18.55;5.75;;;9.80;86.90;;;;;;5065608;28;19915;-77
2021/10/08 04:25:10;;;;;;;19.60;4.88;;;9.90;86.50;;;;;;5066583;28;20064;-78
2021/10/08 04:27:36;;;;;;;;;;;9.90;86.70;;;;;;5066742;28;20637;-78
2021/10/08 04:30:02;;;;;;;17.27;4.75;;;9.90;86.70;;;;;;5066721;28;19909;-78
2021/10/08 04:32:27;;;;;;;25.85;5.32;;;9.80;86.90;;;;;;5066886;28;20028;-78
2021/10/08 04:34:53;;;;;;;;;;;9.80;86.60;;;;;;5065261;28;20043;-78
2021/10/08 04:37:18;;;;;;;20.77;5.30;;;9.80;86.60;;;;;;5066381;28;20428;-79
2021/10/08 04:39:44;;;;;;;17.88;5.15;;;9.80;87.00;;;;;;5066122;28;20085;-79
2021/10/08 04:42:09;;;;;;;;;;;9.80;86.80;;;;;;5065581;28;20312;-78
2021/10/08 04:44:36;;;;;;;23.08;5.40;;;9.80;86.40;;;;;;5066754;28;20344;-78
2021/10/08 04:47:03;;;;;;;18.67;5.05;;;9.80;86.20;;;;;;5066354;28;20389;-78
2021/10/08 04:49:29;;;;;;;18.50;5.38;;;9.80;86.30;;;;;;5065021;28;20060;-77
2021/10/08 04:51:54;;;;;;;;;;;9.80;86.10;;;;;;5065597;28;20063;-78
2021/10/08 04:54:20;;;;;;;15.73;5.30;;;9.60;86.80;;;;;;5065850;28;19962;-77
2021/10/08 04:56:46;;;;;;;19.17;6.20;;;9.70;86.50;;;;;;5065212;28;20466;-78
2021/10/08 04:59:11;;;;;;;;;;;9.70;86.70;;;;;;5066773;28;20036;-78
2021/10/08 05:01:37;;;;;;;17.60;5.43;;;9.70;86.50;;;;;;5064715;28;19908;-78
2021/10/08 05:04:02;;;;;;;18.65;5.72;;;9.70;85.90;;;;;;5065077;28;20168;-78
2021/10/08 05:06:28;;;;;;;;;;;9.70;85.70;;;;;;5065626;28;20071;-78
2021/10/08 05:08:54;;;;;;;56.50;21.48;;;9.70;86.20;;;;;;5066256;28;20011;-77
2021/10/08 05:11:19;;;;;;;;;;;9.70;85.90;;;;;;5066794;28;20032;-77
2021/10/08 05:13:45;;;;;;;32.38;10.23;;;9.70;85.90;;;;;;5064621;28;20007;-77
2021/10/08 05:16:11;;;;;;;;;;;9.70;85.90;;;;;;5066745;28;20909;-77
2021/10/08 05:18:37;;;;;;;16.90;5.68;;;9.70;85.50;;;;;;5064855;28;19911;-78
2021/10/08 05:21:02;;;;;;;;;;;9.80;84.90;;;;;;5065097;28;20052;-78
2021/10/08 05:23:28;;;;;;;16.58;5.43;;;9.80;84.50;;;;;;5064839;28;20094;-78
2021/10/08 05:25:53;;;;;;;;;;;9.90;84.10;;;;;;5065354;28;20055;-78
2021/10/08 05:28:19;;;;;;;20.48;5.22;;;10.00;84.10;;;;;;5066177;28;19912;-77
2021/10/08 05:30:44;;;;;;;;;;;9.90;84.40;;;;;;5066501;28;20028;-76
2021/10/08 05:33:11;;;;;;;19.98;5.93;;;9.90;83.50;;;;;;5066191;28;19908;-77
2021/10/08 05:35:37;;;;;;;27.30;6.10;;;9.90;83.70;;;;;;5065849;28;20031;-78
2021/10/08 05:38:04;;;;;;;;;;;10.00;83.30;;;;;;5066533;28;20841;-77
2021/10/08 05:40:29;;;;;;;27.80;8.52;;;10.10;82.40;;;;;;5065604;28;19950;-77
2021/10/08 05:42:55;;;;;;;;;;;10.20;82.20;;;;;;5066323;28;20469;-77
2021/10/08 05:45:21;;;;;;;19.55;5.85;;;10.10;82.90;;;;;;5065845;28;19908;-77
2021/10/08 05:47:46;;;;;;;;;;;10.20;82.70;;;;;;5066622;28;20504;-77
2021/10/08 05:50:12;;;;;;;28.45;6.22;;;10.30;82.00;;;;;;5065588;28;20281;-78
2021/10/08 05:52:37;;;;;;;23.67;5.53;;;10.30;81.70;;;;;;5065747;28;20088;-77
2021/10/08 05:55:03;;;;;;;;;;;10.40;81.60;;;;;;5064378;28;20106;-78
2021/10/08 05:57:29;;;;;;;16.23;5.43;;;10.50;80.60;;;;;;5064623;28;19912;-78
2021/10/08 05:59:54;;;;;;;;;;;10.60;80.00;;;;;;5066127;28;20050;-76
2021/10/08 06:02:20;;;;;;;35.45;6.35;;;10.60;79.50;;;;;;5065838;28;19912;-78
2021/10/08 06:04:45;;;;;;;;;;;10.60;79.60;;;;;;5066016;28;20029;-77
2021/10/08 06:07:11;;;;;;;22.25;4.43;;;10.70;79.20;;;;;;5064168;28;19969;-77
2021/10/08 06:09:37;;;;;;;;;;;10.80;79.10;;;;;;5064572;28;20115;-78
2021/10/08 06:12:03;;;;;;;15.93;5.25;;;11.00;78.70;;;;;;5065351;28;19915;-78
2021/10/08 06:14:28;;;;;;;;;;;11.10;78.10;;;;;;5067906;28;20552;-78
2021/10/08 06:16:54;;;;;;;15.65;4.55;;;11.40;76.80;;;;;;5069145;28;19912;-76
2021/10/08 06:19:19;;;;;;;;;;;11.60;75.50;;;;;;5069732;28;20064;-77
2021/10/08 06:21:45;;;;;;;27.50;7.57;;;11.60;75.30;;;;;;5069214;28;19908;-76
2021/10/08 06:24:10;;;;;;;;;;;11.70;74.80;;;;;;5069364;28;20020;-77
2021/10/08 06:26:36;;;;;;;19.83;5.20;;;12.00;74.50;;;;;;5069169;28;20301;-77
2021/10/08 06:29:02;;;;;;;;;;;12.30;73.10;;;;;;5069629;28;20028;-78
2021/10/08 06:31:28;;;;;;;22.10;5.25;;;12.70;71.90;;;;;;5068792;28;19961;-78
2021/10/08 06:33:53;;;;;;;;;;;13.10;69.90;;;;;;5068096;28;20447;-77
2021/10/08 06:36:19;;;;;;;35.45;10.15;;;13.30;68.80;;;;;;5068518;28;19909;-77
2021/10/08 06:38:44;;;;;;;;;;;13.70;68.00;;;;;;5069363;28;20493;-78
2021/10/08 06:41:10;;;;;;;16.27;5.35;;;14.00;66.30;;;;;;5068189;28;19916;-76
2021/10/08 06:43:36;;;;;;;;;;;14.30;66.00;;;;;;5068067;28;20028;-78
2021/10/08 06:46:02;;;;;;;19.58;5.75;;;14.60;64.10;;;;;;5066610;28;19904;-79
2021/10/08 06:48:27;;;;;;;;;;;14.90;63.10;;;;;;5069290;28;20520;-78
2021/10/08 06:50:53;;;;;;;17.08;6.07;;;14.90;62.50;;;;;;5067136;28;20221;-78
2021/10/08 06:53:18;;;;;;;;;;;15.00;63.20;;;;;;5067339;28;20074;-77
2021/10/08 06:55:46;;;;;;;23.02;5.85;;;15.50;62.10;;;;;;5068155;28;19923;-78
2021/10/08 06:58:12;;;;;;;18.50;6.35;;;15.60;60.40;;;;;;5068270;28;20021;-79
2021/10/08 07:00:38;;;;;;;19.70;7.28;;;15.70;59.00;;;;;;5068287;28;20081;-78
2021/10/08 07:03:03;;;;;;;17.10;5.78;;;15.80;59.40;;;;;;5068369;28;20064;-77
2021/10/08 07:05:29;;;;;;;24.92;5.00;;;15.90;58.70;;;;;;5068560;28;20029;-77
2021/10/08 07:07:55;;;;;;;;;;;16.00;58.70;;;;;;5068382;28;20032;-78
2021/10/08 07:10:21;;;;;;;17.48;6.15;;;16.10;57.70;;;;;;5067593;28;19961;-77
2021/10/08 07:12:47;;;;;;;22.15;6.57;;;16.10;57.90;;;;;;5067812;28;20028;-78
2021/10/08 07:15:18;;;;;;;27.98;5.72;;;16.00;57.70;;;;;;5067725;28;20047;-78
2021/10/08 07:17:47;;;;;;;16.42;5.18;;;15.80;58.70;;;;;;5066809;28;20124;-77
2021/10/08 07:20:15;;;;;;;22.75;5.10;;;15.30;59.30;;;;;;5068057;28;20097;-78
2021/10/08 07:22:41;;;;;;;13.05;4.68;;;15.00;60.10;;;;;;5067446;28;20037;-77
2021/10/08 07:25:07;;;;;;;;;;;14.70;61.30;;;;;;5067981;28;20024;-77
2021/10/08 07:27:34;;;;;;;29.33;6.13;;;14.50;61.70;;;;;;5067613;28;19986;-77
2021/10/08 07:30:00;;;;;;;33.58;5.65;;;14.50;62.20;;;;;;5067739;28;20276;-77
2021/10/08 07:32:27;;;;;;;;;;;14.50;62.40;;;;;;5068130;28;20035;-78
2021/10/08 07:34:53;;;;;;;19.25;4.53;;;14.40;62.00;;;;;;5066514;28;19924;-78
2021/10/08 07:37:18;;;;;;;21.15;5.55;;;14.50;62.00;;;;;;5067481;28;20054;-78
2021/10/08 07:39:44;;;;;;;;;;;14.20;63.00;;;;;;5067709;28;20032;-78
2021/10/08 07:42:10;;;;;;;17.60;5.43;;;14.20;63.50;;;;;;5067555;28;19999;-78
2021/10/08 07:44:36;;;;;;;16.17;5.45;;;14.40;64.30;;;;;;5066457;28;20062;-78
2021/10/08 07:47:01;;;;;;;;;;;14.40;63.50;;;;;;5067891;28;20110;-78
2021/10/08 07:49:27;;;;;;;16.70;4.68;;;14.40;63.50;;;;;;5065813;28;19908;-78
2021/10/08 07:51:53;;;;;;;;;;;14.70;62.60;;;;;;5067522;28;20039;-78
2021/10/08 07:54:18;;;;;;;22.98;4.35;;;14.80;62.60;;;;;;5065615;28;19920;-78
2021/10/08 07:56:44;;;;;;;;;;;15.00;61.70;;;;;;5067436;28;20424;-78
2021/10/08 07:59:09;;;;;;;19.33;3.78;;;15.10;61.40;;;;;;5066484;28;20280;-77
2021/10/08 08:01:35;;;;;;;20.40;4.70;;;15.20;60.30;;;;;;5065609;28;20055;-77
2021/10/08 08:04:01;;;;;;;;;;;15.40;59.80;;;;;;5066403;28;20067;-78
2021/10/08 08:06:27;;;;;;;16.08;4.18;;;15.60;58.80;;;;;;5066835;28;19908;-77
2021/10/08 08:08:52;;;;;;;;;;;15.80;58.20;;;;;;5067266;28;20229;-78
2021/10/08 08:11:18;;;;;;;27.25;4.38;;;16.20;57.70;;;;;;5065439;28;19909;-77
2021/10/08 08:13:43;;;;;;;13.65;4.18;;;16.50;56.90;;;;;;5065646;28;20051;-77
2021/10/08 08:16:09;;;;;;;21.90;4.25;;;16.90;56.40;;;;;;5066475;28;20594;-78
2021/10/08 08:18:35;;;;;;;16.48;5.65;;;17.20;54.70;;;;;;5067104;28;20024;-78
2021/10/08 08:21:02;;;;;;;17.10;5.43;;;17.30;54.60;;;;;;5066692;28;20050;-78
2021/10/08 08:23:28;;;;;;;18.00;5.63;;;17.80;53.50;;;;;;5065493;28;20024;-77
2021/10/08 08:25:54;;;;;;;21.80;4.53;;;18.30;52.00;;;;;;5065125;28;20051;-78
2021/10/08 08:28:21;;;;;;;21.40;4.93;;;18.40;51.70;;;;;;5066546;28;20024;-78
2021/10/08 08:30:47;;;;;;;13.50;3.80;;;18.80;50.50;;;;;;5066600;28;20021;-77
2021/10/08 08:33:13;;;;;;;21.73;3.75;;;18.90;49.40;;;;;;5066928;28;20036;-78
2021/10/08 08:35:38;;;;;;;14.77;4.57;;;18.80;49.60;;;;;;5065240;28;20072;-78
2021/10/08 08:38:04;;;;;;;23.17;13.27;;;18.90;50.00;;;;;;5066601;28;20017;-78
2021/10/08 08:40:30;;;;;;;17.13;5.80;;;19.10;49.50;;;;;;5066400;28;20408;-77
2021/10/08 08:42:58;;;;;;;17.27;4.47;;;19.30;48.40;;;;;;5065008;28;20112;-77
2021/10/08 08:45:24;;;;;;;26.00;4.50;;;19.20;47.60;;;;;;5067481;28;20496;-78
2021/10/08 08:47:56;;;;;;;12.35;3.75;;;19.00;48.70;;;;;;5066471;28;20024;-78
2021/10/08 08:50:22;;;;;;;19.08;4.20;;;18.80;49.70;;;;;;5066112;28;20786;-78
2021/10/08 08:52:47;;;;;;;23.25;3.83;;;18.80;48.70;;;;;;5066365;28;20056;-78
2021/10/08 08:55:14;;;;;;;16.13;4.18;;;19.00;47.70;;;;;;5064903;28;20052;-78
2021/10/08 08:57:40;;;;;;;16.45;3.35;;;19.20;47.80;;;;;;5066054;28;20371;-78
2021/10/08 09:00:09;;;;;;;11.98;3.28;;;19.00;47.70;;;;;;5065726;28;20028;-78
2021/10/08 09:02:36;;;;;;;18.52;3.63;;;19.30;46.90;;;;;;5066385;28;20558;-77
2021/10/08 09:05:04;;;;;;;14.25;3.55;;;19.40;47.10;;;;;;5065633;28;20032;-79
2021/10/08 09:07:33;;;;;;;13.05;3.55;;;19.00;47.30;;;;;;5066039;28;20173;-77
2021/10/08 09:10:13;;;;;;;15.18;3.50;;;18.70;47.80;;;;;;5064091;28;20508;-78
2021/10/08 09:12:40;;;;;;;19.92;3.33;;;19.00;47.50;;;;;;5066253;28;20805;-78
2021/10/08 09:15:09;;;;;;;10.27;3.67;;;19.00;47.10;;;;;;5066223;28;20044;-77
2021/10/08 09:17:35;;;;;;;17.15;3.75;;;19.30;46.90;;;;;;5065896;28;20408;-77
2021/10/08 09:20:11;;;;;;;18.50;4.57;;;19.40;46.70;;;;;;5065558;28;20024;-77
2021/10/08 09:22:40;;;;;;;13.20;3.25;;;19.40;46.10;;;;;;5066119;28;20093;-78
2021/10/08 09:25:29;;;;;;;14.98;3.20;;;19.30;46.40;;;;;;5064701;28;20154;-78
2021/10/08 09:28:09;;;;;;;16.50;5.07;;;19.30;46.80;;;;;;5066260;28;20051;-77
2021/10/08 09:30:45;;;;;;;16.35;4.53;;;19.50;45.20;;;;;;5066092;28;20025;-78
2021/10/08 09:33:15;;;;;;;12.60;3.20;;;19.50;45.60;;;;;;5066229;28;20515;-77
2021/10/08 09:35:41;;;;;;;10.43;4.10;;;19.80;44.50;;;;;;5065459;28;20088;-78
2021/10/08 09:38:14;;;;;;;9.75;3.72;;;19.50;44.60;;;;;;5064377;28;20460;-77
2021/10/08 09:41:03;;;;;;;20.38;5.47;;;19.90;44.10;;;;;;5065815;28;20036;-78
2021/10/08 09:43:30;;;;;;;13.50;4.40;;;20.30;43.00;;;;;;5064543;28;20056;-77
2021/10/08 09:45:59;;;;;;;9.65;3.13;;;19.90;43.20;;;;;;5065746;28;20076;-78
2021/10/08 09:48:41;;;;;;;14.25;3.20;;;19.90;43.60;;;;;;5067703;28;20059;-77
2021/10/08 09:51:12;;;;;;;11.52;3.78;;;20.10;42.80;;;;;;5069720;28;20496;-77
2021/10/08 09:53:55;;;;;;;13.98;3.05;;;20.60;42.50;;;;;;5069391;28;20076;-78
2021/10/08 09:56:41;;;;;;;18.23;4.47;;;20.70;40.90;;;;;;5068177;28;20040;-77
2021/10/08 09:59:10;;;;;;;13.93;2.80;;;20.60;41.50;;;;;;5069718;28;20412;-78
2021/10/08 10:01:36;;;;;;;13.18;3.13;;;20.40;40.80;;;;;;5067870;28;20416;-78
2021/10/08 10:04:04;;;;;;;17.80;3.22;;;20.30;41.40;;;;;;5069362;28;20113;-77
2021/10/08 10:06:31;;;;;;;11.18;3.15;;;20.20;41.30;;;;;;5068968;28;20515;-77
2021/10/08 10:08:57;;;;;;;16.40;2.78;;;20.10;40.60;;;;;;5068122;28;20131;-77
2021/10/08 10:11:25;;;;;;;11.45;3.25;;;19.90;40.80;;;;;;5067792;28;20520;-77
2021/10/08 10:13:55;;;;;;;18.98;3.72;;;20.20;41.20;;;;;;5069202;28;20024;-78
2021/10/08 10:16:22;;;;;;;14.98;3.13;;;19.80;40.90;;;;;;5069175;28;20039;-77
2021/10/08 10:18:54;;;;;;;9.50;2.80;;;19.40;41.40;;;;;;5069220;28;20020;-76
2021/10/08 10:21:24;;;;;;;12.32;3.28;;;19.10;41.90;;;;;;5068864;28;20029;-78
2021/10/08 10:23:54;;;;;;;11.52;2.40;;;18.60;42.40;;;;;;5068701;28;20024;-79
2021/10/08 10:26:25;;;;;;;10.88;3.17;;;18.30;42.30;;;;;;5067788;28;20032;-77
2021/10/08 10:28:52;;;;;;;12.55;3.03;;;17.90;43.80;;;;;;5067779;28;20036;-80
2021/10/08 10:31:19;;;;;;;14.02;3.38;;;17.60;44.60;;;;;;5069249;28;20028;-78
2021/10/08 10:33:47;;;;;;;12.73;3.00;;;17.50;45.40;;;;;;5067463;28;20393;-78
2021/10/08 10:36:22;;;;;;;10.32;3.30;;;17.40;45.00;;;;;;5068746;28;20032;-78
2021/10/08 10:38:48;;;;;;;8.20;2.53;;;17.20;46.50;;;;;;5068790;28;20025;-79
2021/10/08 10:41:17;;;;;;;13.13;3.03;;;17.40;44.30;;;;;;5068747;28;20037;-76
2021/10/08 10:43:45;;;;;;;11.60;2.53;;;17.20;43.70;;;;;;5068519;28;20085;-77
2021/10/08 10:52:03;;;;;;;7.28;2.88;;;17.00;44.60;;;;;;5068728;28;20028;-77
2021/10/08 10:54:38;;;;;;;11.57;2.58;;;17.00;44.30;;;;;;5068614;28;20040;-77
2021/10/08 10:57:06;;;;;;;14.13;3.17;;;16.90;44.80;;;;;;5066853;28;20028;-77
2021/10/08 10:59:34;;;;;;;10.40;2.65;;;17.10;44.80;;;;;;5067813;28;20052;-77
2021/10/08 11:02:04;;;;;;;6.95;2.20;;;17.20;44.20;;;;;;5068158;28;20052;-78
2021/10/08 11:04:30;;;;;;;7.07;2.60;;;17.30;44.30;;;;;;5066905;28;20032;-78
2021/10/08 11:07:19;;;;;;;11.57;2.80;;;17.30;42.60;;;;;;5067065;28;20030;-78
2021/10/08 11:10:06;;;;;;;11.82;3.03;;;17.40;43.60;;;;;;5068267;28;20020;-78
2021/10/08 11:12:34;;;;;;;15.90;2.88;;;17.40;43.80;;;;;;5066638;28;20102;-78
2021/10/08 11:15:15;;;;;;;10.93;3.47;;;17.30;44.80;;;;;;5068442;28;20076;-78
2021/10/08 11:17:53;;;;;;;15.77;3.97;;;17.50;43.20;;;;;;5067010;28;20041;-76
2021/10/08 11:20:25;;;;;;;10.25;2.50;;;17.40;42.80;;;;;;5066705;28;20505;-78
2021/10/08 11:22:55;;;;;;;15.45;3.83;;;17.30;42.70;;;;;;5067986;28;20036;-77
2021/10/08 11:25:21;;;;;;;12.20;3.05;;;17.30;43.20;;;;;;5066389;28;20020;-77
2021/10/08 11:27:48;;;;;;;16.75;2.53;;;17.30;42.60;;;;;;5066442;28;20032;-77
2021/10/08 11:30:13;;;;;;;7.57;2.40;;;17.30;42.90;;;;;;5066623;28;20548;-77
2021/10/08 11:32:45;;;;;;;9.25;2.53;;;17.40;42.90;;;;;;5066650;28;20366;-77
2021/10/08 11:35:11;;;;;;;7.85;2.50;;;17.30;42.00;;;;;;5067131;28;20039;-78
2021/10/08 11:37:42;;;;;;;8.13;2.45;;;17.40;43.60;;;;;;5066738;28;20036;-78
2021/10/08 11:40:09;;;;;;;10.35;2.30;;;17.40;41.50;;;;;;5067372;28;20086;-78
2021/10/08 11:42:42;;;;;;;11.63;3.17;;;17.40;42.70;;;;;;5067753;28;20024;-77
2021/10/08 11:45:12;;;;;;;13.93;2.33;;;17.40;42.40;;;;;;5066195;28;20576;-78
2021/10/08 11:52:41;;;;;;;10.38;2.22;;;17.30;42.70;;;;;;5066761;28;20052;-77
2021/10/08 11:55:22;;;;;;;10.18;2.03;;;17.50;41.70;;;;;;5067067;28;20040;-78
2021/10/08 11:57:55;;;;;;;11.98;2.47;;;17.50;41.10;;;;;;5067402;28;20021;-77
2021/10/08 12:00:24;;;;;;;8.70;2.40;;;17.60;41.60;;;;;;5065747;28;20512;-78
2021/10/08 12:02:59;;;;;;;8.02;1.70;;;17.60;41.10;;;;;;5065619;28;20028;-78
2021/10/08 12:05:26;;;;;;;10.00;1.98;;;17.70;40.50;;;;;;5067222;28;20032;-78
2021/10/08 12:08:01;;;;;;;13.45;3.20;;;17.60;42.00;;;;;;5065734;28;20341;-77
2021/10/08 12:10:27;;;;;;;9.85;1.85;;;17.60;42.30;;;;;;5065921;28;20024;-78
2021/10/08 12:12:56;;;;;;;21.58;2.00;;;17.60;42.10;;;;;;5065781;28;20090;-78
2021/10/08 12:15:23;;;;;;;15.32;2.78;;;17.80;41.80;;;;;;5066945;28;20032;-78
2021/10/08 12:17:50;;;;;;;9.20;1.90;;;17.80;43.40;;;;;;5066564;28;20024;-78
2021/10/08 12:20:24;;;;;;;12.60;2.28;;;17.90;41.50;;;;;;5066423;28;20033;-77
2021/10/08 12:23:11;;;;;;;8.25;2.10;;;17.80;41.10;;;;;;5065824;28;20032;-77
2021/10/08 12:25:37;;;;;;;16.50;2.33;;;17.90;41.10;;;;;;5066681;28;20028;-76
2021/10/08 12:28:03;;;;;;;12.73;2.25;;;17.80;41.90;;;;;;5066792;28;20096;-78
2021/10/08 12:30:28;;;;;;;11.52;2.45;;;18.00;41.60;;;;;;5066608;28;20493;-78
2021/10/08 12:33:03;;;;;;;13.38;2.03;;;18.00;40.80;;;;;;5064668;28;20033;-78
2021/10/08 12:35:29;;;;;;;11.30;2.15;;;18.00;40.20;;;;;;5065813;28;20033;-77
2021/10/08 12:38:00;;;;;;;11.40;2.28;;;18.10;40.80;;;;;;5063822;28;20047;-76
2021/10/08 12:40:26;;;;;;;10.95;2.58;;;18.10;40.60;;;;;;5062760;28;20470;-76
2021/10/08 12:42:56;;;;;;;6.78;2.15;;;18.10;40.10;;;;;;5062136;28;20029;-76
2021/10/08 12:45:25;;;;;;;13.38;2.50;;;18.00;41.10;;;;;;5064390;28;20032;-76
2021/10/08 12:47:51;;;;;;;7.38;2.83;;;18.00;40.40;;;;;;5063940;28;20123;-77
2021/10/08 12:50:18;;;;;;;8.45;2.38;;;18.00;40.90;;;;;;5059443;28;20729;-77
2021/10/08 12:52:50;;;;;;;7.65;2.35;;;18.00;39.50;;;;;;5063536;28;20559;-77
2021/10/08 12:55:18;;;;;;;8.05;2.30;;;18.00;39.00;;;;;;5062851;28;20114;-76
2021/10/08 12:58:06;;;;;;;11.82;2.50;;;18.00;40.10;;;;;;5064039;28;20155;-77
2021/10/08 13:00:40;;;;;;;11.52;2.78;;;17.90;41.20;;;;;;5062578;28;20055;-76
2021/10/08 13:03:07;;;;;;;6.43;3.45;;;18.00;40.60;;;;;;5064894;28;20101;-77
2021/10/08 13:05:48;;;;;;;13.77;2.63;;;18.00;40.80;;;;;;5063521;28;20037;-76
2021/10/08 13:08:18;;;;;;;10.02;2.72;;;17.90;41.20;;;;;;5065785;28;20036;-77
2021/10/08 13:10:57;;;;;;;8.98;2.30;;;17.80;41.00;;;;;;5063576;28;20127;-77
2021/10/08 13:13:25;;;;;;;9.10;3.20;;;17.90;40.80;;;;;;5063334;28;20124;-77
2021/10/08 13:15:51;;;;;;;9.18;2.75;;;17.80;42.10;;;;;;5063373;28;20120;-76
2021/10/08 13:18:17;;;;;;;9.57;2.10;;;17.70;42.20;;;;;;5063784;28;20075;-77